sensor_id;sensor_type;location;lat;lon;timestamp;P1;durP1;ratioP1;P2;durP2;ratioP2
36931;SDS011;22847;42.654;23.370;2023-04-25T00:00:19;4.57;;;2.80;;
36931;SDS011;22847;42.654;23.370;2023-04-25T00:02:44;3.50;;;3.20;;
36931;SDS011;22847;42.654;23.370;2023-04-25T00:05:11;4.45;;;3.42;;
36931;SDS011;22847;42.654;23.370;2023-04-25T00:07:37;4.68;;;3.63;;
36931;SDS011;22847;42.654;23.370;2023-04-25T00:10:03;4.43;;;3.47;;
36931;SDS011;22847;42.654;23.370;2023-04-25T00:12:29;3.70;;;3.33;;
36931;SDS011;22847;42.654;23.370;2023-04-25T00:14:54;7.57;;;3.92;;
36931;SDS011;22847;42.654;23.370;2023-04-25T00:17:22;7.00;;;4.00;;
36931;SDS011;22847;42.654;23.370;2023-04-25T00:19:49;5.05;;;4.15;;
36931;SDS011;22847;42.654;23.370;2023-04-25T00:22:15;7.10;;;4.10;;
36931;SDS011;22847;42.654;23.370;2023-04-25T00:24:41;5.03;;;4.22;;
36931;SDS011;22847;42.654;23.370;2023-04-25T00:27:07;9.38;;;5.15;;
36931;SDS011;22847;42.654;23.370;2023-04-25T00:29:33;5.45;;;3.80;;
36931;SDS011;22847;42.654;23.370;2023-04-25T00:31:58;6.20;;;4.03;;
36931;SDS011;22847;42.654;23.370;2023-04-25T00:34:24;7.60;;;4.65;;
36931;SDS011;22847;42.654;23.370;2023-04-25T00:36:49;8.48;;;5.25;;
36931;SDS011;22847;42.654;23.370;2023-04-25T00:39:15;6.35;;;5.05;;
36931;SDS011;22847;42.654;23.370;2023-04-25T00:41:40;8.95;;;4.90;;
36931;SDS011;22847;42.654;23.370;2023-04-25T00:44:05;8.55;;;5.70;;
36931;SDS011;22847;42.654;23.370;2023-04-25T00:46:35;9.43;;;5.95;;
36931;SDS011;22847;42.654;23.370;2023-04-25T00:49:00;8.20;;;5.75;;
36931;SDS011;22847;42.654;23.370;2023-04-25T00:51:26;6.93;;;4.85;;
36931;SDS011;22847;42.654;23.370;2023-04-25T00:53:51;6.97;;;4.95;;
36931;SDS011;22847;42.654;23.370;2023-04-25T00:56:18;6.93;;;5.18;;
36931;SDS011;22847;42.654;23.370;2023-04-25T00:58:45;7.38;;;5.00;;
36931;SDS011;22847;42.654;23.370;2023-04-25T01:01:10;7.80;;;4.70;;
36931;SDS011;22847;42.654;23.370;2023-04-25T01:03:37;5.10;;;4.18;;
36931;SDS011;22847;42.654;23.370;2023-04-25T01:06:10;5.28;;;4.10;;
36931;SDS011;22847;42.654;23.370;2023-04-25T01:08:36;5.95;;;4.10;;
36931;SDS011;22847;42.654;23.370;2023-04-25T01:11:03;6.05;;;4.30;;
36931;SDS011;22847;42.654;23.370;2023-04-25T01:13:29;6.88;;;4.63;;
36931;SDS011;22847;42.654;23.370;2023-04-25T01:15:56;9.60;;;4.40;;
36931;SDS011;22847;42.654;23.370;2023-04-25T01:18:23;6.82;;;4.90;;
36931;SDS011;22847;42.654;23.370;2023-04-25T01:20:50;5.15;;;4.13;;
36931;SDS011;22847;42.654;23.370;2023-04-25T01:23:16;4.90;;;4.05;;
36931;SDS011;22847;42.654;23.370;2023-04-25T01:25:43;5.32;;;3.83;;
36931;SDS011;22847;42.654;23.370;2023-04-25T01:28:09;5.13;;;3.90;;
36931;SDS011;22847;42.654;23.370;2023-04-25T01:30:34;6.53;;;4.75;;
36931;SDS011;22847;42.654;23.370;2023-04-25T01:33:00;6.28;;;3.25;;
36931;SDS011;22847;42.654;23.370;2023-04-25T01:35:27;5.90;;;4.13;;
36931;SDS011;22847;42.654;23.370;2023-04-25T01:37:53;5.85;;;3.85;;
36931;SDS011;22847;42.654;23.370;2023-04-25T01:40:18;4.78;;;3.63;;
36931;SDS011;22847;42.654;23.370;2023-04-25T01:42:46;5.90;;;3.90;;
36931;SDS011;22847;42.654;23.370;2023-04-25T01:45:11;6.13;;;3.70;;
36931;SDS011;22847;42.654;23.370;2023-04-25T01:47:37;4.63;;;3.60;;
36931;SDS011;22847;42.654;23.370;2023-04-25T01:50:04;4.05;;;3.60;;
36931;SDS011;22847;42.654;23.370;2023-04-25T01:52:31;6.13;;;3.88;;
36931;SDS011;22847;42.654;23.370;2023-04-25T01:54:57;4.47;;;3.58;;
36931;SDS011;22847;42.654;23.370;2023-04-25T01:57:24;5.38;;;4.30;;
36931;SDS011;22847;42.654;23.370;2023-04-25T01:59:49;4.43;;;3.88;;
36931;SDS011;22847;42.654;23.370;2023-04-25T02:02:15;5.65;;;4.15;;
36931;SDS011;22847;42.654;23.370;2023-04-25T02:04:40;6.82;;;4.32;;
36931;SDS011;22847;42.654;23.370;2023-04-25T02:07:06;5.97;;;4.45;;
36931;SDS011;22847;42.654;23.370;2023-04-25T02:09:31;5.68;;;4.28;;
36931;SDS011;22847;42.654;23.370;2023-04-25T02:11:57;6.68;;;4.07;;
36931;SDS011;22847;42.654;23.370;2023-04-25T02:14:23;8.18;;;4.70;;
36931;SDS011;22847;42.654;23.370;2023-04-25T02:16:48;8.35;;;4.65;;
36931;SDS011;22847;42.654;23.370;2023-04-25T02:19:16;6.97;;;4.28;;
36931;SDS011;22847;42.654;23.370;2023-04-25T02:21:41;6.63;;;4.65;;
36931;SDS011;22847;42.654;23.370;2023-04-25T02:24:07;5.22;;;4.70;;
36931;SDS011;22847;42.654;23.370;2023-04-25T02:26:33;5.10;;;4.50;;
36931;SDS011;22847;42.654;23.370;2023-04-25T02:28:58;8.40;;;5.10;;
36931;SDS011;22847;42.654;23.370;2023-04-25T02:31:23;5.43;;;4.78;;
36931;SDS011;22847;42.654;23.370;2023-04-25T02:33:49;7.72;;;5.35;;
36931;SDS011;22847;42.654;23.370;2023-04-25T02:36:14;6.43;;;5.00;;
36931;SDS011;22847;42.654;23.370;2023-04-25T02:38:40;6.97;;;4.70;;
36931;SDS011;22847;42.654;23.370;2023-04-25T02:41:05;5.78;;;4.68;;
36931;SDS011;22847;42.654;23.370;2023-04-25T02:43:31;6.90;;;4.75;;
36931;SDS011;22847;42.654;23.370;2023-04-25T02:45:56;6.93;;;4.45;;
36931;SDS011;22847;42.654;23.370;2023-04-25T02:48:22;6.25;;;4.90;;
36931;SDS011;22847;42.654;23.370;2023-04-25T02:50:47;7.00;;;5.10;;
36931;SDS011;22847;42.654;23.370;2023-04-25T02:53:13;6.95;;;5.30;;
36931;SDS011;22847;42.654;23.370;2023-04-25T02:55:38;7.55;;;5.60;;
36931;SDS011;22847;42.654;23.370;2023-04-25T02:58:04;7.30;;;6.00;;
36931;SDS011;22847;42.654;23.370;2023-04-25T03:00:29;8.70;;;5.68;;
36931;SDS011;22847;42.654;23.370;2023-04-25T03:02:55;8.70;;;6.07;;
36931;SDS011;22847;42.654;23.370;2023-04-25T03:05:21;7.95;;;5.50;;
36931;SDS011;22847;42.654;23.370;2023-04-25T03:07:46;8.57;;;6.10;;
36931;SDS011;22847;42.654;23.370;2023-04-25T03:10:12;8.60;;;6.55;;
36931;SDS011;22847;42.654;23.370;2023-04-25T03:12:37;7.93;;;5.97;;
36931;SDS011;22847;42.654;23.370;2023-04-25T03:15:03;9.68;;;6.50;;
36931;SDS011;22847;42.654;23.370;2023-04-25T03:17:29;9.80;;;7.68;;
36931;SDS011;22847;42.654;23.370;2023-04-25T03:19:54;8.45;;;6.30;;
36931;SDS011;22847;42.654;23.370;2023-04-25T03:22:20;9.35;;;6.05;;
36931;SDS011;22847;42.654;23.370;2023-04-25T03:24:47;7.95;;;6.05;;
36931;SDS011;22847;42.654;23.370;2023-04-25T03:27:12;10.40;;;6.35;;
36931;SDS011;22847;42.654;23.370;2023-04-25T03:29:38;7.35;;;5.90;;
36931;SDS011;22847;42.654;23.370;2023-04-25T03:32:03;8.88;;;6.20;;
36931;SDS011;22847;42.654;23.370;2023-04-25T03:34:29;12.18;;;6.70;;
36931;SDS011;22847;42.654;23.370;2023-04-25T03:36:55;7.20;;;5.75;;
36931;SDS011;22847;42.654;23.370;2023-04-25T03:39:20;8.07;;;6.22;;
36931;SDS011;22847;42.654;23.370;2023-04-25T03:41:45;13.20;;;6.85;;
36931;SDS011;22847;42.654;23.370;2023-04-25T03:44:11;8.30;;;6.43;;
36931;SDS011;22847;42.654;23.370;2023-04-25T03:46:36;8.55;;;6.63;;
36931;SDS011;22847;42.654;23.370;2023-04-25T03:49:02;16.10;;;8.65;;
36931;SDS011;22847;42.654;23.370;2023-04-25T03:51:27;10.38;;;6.75;;
36931;SDS011;22847;42.654;23.370;2023-04-25T03:53:52;10.77;;;7.47;;
36931;SDS011;22847;42.654;23.370;2023-04-25T03:56:18;12.50;;;6.88;;
36931;SDS011;22847;42.654;23.370;2023-04-25T03:58:43;9.40;;;6.90;;
36931;SDS011;22847;42.654;23.370;2023-04-25T04:01:09;10.38;;;7.90;;
36931;SDS011;22847;42.654;23.370;2023-04-25T04:03:35;11.55;;;8.02;;
36931;SDS011;22847;42.654;23.370;2023-04-25T04:06:04;9.90;;;7.40;;
36931;SDS011;22847;42.654;23.370;2023-04-25T04:08:30;15.13;;;7.68;;
36931;SDS011;22847;42.654;23.370;2023-04-25T04:10:57;14.82;;;7.97;;
36931;SDS011;22847;42.654;23.370;2023-04-25T04:13:25;10.88;;;8.00;;
36931;SDS011;22847;42.654;23.370;2023-04-25T04:15:50;12.73;;;9.13;;
36931;SDS011;22847;42.654;23.370;2023-04-25T04:18:16;17.33;;;11.05;;
36931;SDS011;22847;42.654;23.370;2023-04-25T04:20:41;12.90;;;8.07;;
36931;SDS011;22847;42.654;23.370;2023-04-25T04:23:07;9.77;;;7.60;;
36931;SDS011;22847;42.654;23.370;2023-04-25T04:25:32;11.18;;;7.30;;
36931;SDS011;22847;42.654;23.370;2023-04-25T04:27:57;10.07;;;7.15;;
36931;SDS011;22847;42.654;23.370;2023-04-25T04:30:23;14.35;;;8.32;;
36931;SDS011;22847;42.654;23.370;2023-04-25T04:32:50;10.43;;;7.50;;
36931;SDS011;22847;42.654;23.370;2023-04-25T04:35:16;10.13;;;6.88;;
36931;SDS011;22847;42.654;23.370;2023-04-25T04:37:42;10.05;;;7.38;;
36931;SDS011;22847;42.654;23.370;2023-04-25T04:40:09;10.40;;;7.60;;
36931;SDS011;22847;42.654;23.370;2023-04-25T04:42:34;10.50;;;7.28;;
36931;SDS011;22847;42.654;23.370;2023-04-25T04:45:01;10.27;;;6.97;;
36931;SDS011;22847;42.654;23.370;2023-04-25T04:47:28;8.80;;;6.95;;
36931;SDS011;22847;42.654;23.370;2023-04-25T04:49:56;12.60;;;7.47;;
36931;SDS011;22847;42.654;23.370;2023-04-25T04:52:21;8.93;;;6.63;;
36931;SDS011;22847;42.654;23.370;2023-04-25T04:54:47;11.00;;;6.75;;
36931;SDS011;22847;42.654;23.370;2023-04-25T04:57:12;8.80;;;6.40;;
36931;SDS011;22847;42.654;23.370;2023-04-25T04:59:38;8.30;;;6.53;;
36931;SDS011;22847;42.654;23.370;2023-04-25T05:02:03;8.80;;;6.22;;
36931;SDS011;22847;42.654;23.370;2023-04-25T05:04:28;8.80;;;6.38;;
36931;SDS011;22847;42.654;23.370;2023-04-25T05:06:54;7.78;;;5.72;;
36931;SDS011;22847;42.654;23.370;2023-04-25T05:09:19;8.43;;;6.63;;
36931;SDS011;22847;42.654;23.370;2023-04-25T05:11:45;8.65;;;5.97;;
36931;SDS011;22847;42.654;23.370;2023-04-25T05:14:10;11.15;;;6.65;;
36931;SDS011;22847;42.654;23.370;2023-04-25T05:16:36;8.55;;;6.68;;
36931;SDS011;22847;42.654;23.370;2023-04-25T05:19:01;10.73;;;7.43;;
36931;SDS011;22847;42.654;23.370;2023-04-25T05:21:27;9.82;;;7.20;;
36931;SDS011;22847;42.654;23.370;2023-04-25T05:23:53;12.15;;;7.90;;
36931;SDS011;22847;42.654;23.370;2023-04-25T05:26:19;13.40;;;9.05;;
36931;SDS011;22847;42.654;23.370;2023-04-25T05:28:45;11.00;;;8.40;;
36931;SDS011;22847;42.654;23.370;2023-04-25T05:31:11;10.70;;;8.00;;
36931;SDS011;22847;42.654;23.370;2023-04-25T05:33:36;11.23;;;7.70;;
36931;SDS011;22847;42.654;23.370;2023-04-25T05:36:02;12.82;;;8.45;;
36931;SDS011;22847;42.654;23.370;2023-04-25T05:38:27;13.35;;;8.80;;
36931;SDS011;22847;42.654;23.370;2023-04-25T05:40:53;9.93;;;7.80;;
36931;SDS011;22847;42.654;23.370;2023-04-25T05:43:18;13.43;;;8.38;;
36931;SDS011;22847;42.654;23.370;2023-04-25T05:45:44;10.60;;;8.00;;
36931;SDS011;22847;42.654;23.370;2023-04-25T05:48:09;11.07;;;7.93;;
36931;SDS011;22847;42.654;23.370;2023-04-25T05:50:35;9.20;;;6.85;;
36931;SDS011;22847;42.654;23.370;2023-04-25T05:53:00;9.88;;;6.95;;
36931;SDS011;22847;42.654;23.370;2023-04-25T05:55:25;11.10;;;7.25;;
36931;SDS011;22847;42.654;23.370;2023-04-25T05:57:51;10.63;;;7.35;;
36931;SDS011;22847;42.654;23.370;2023-04-25T06:00:16;10.45;;;7.53;;
36931;SDS011;22847;42.654;23.370;2023-04-25T06:02:42;13.05;;;7.47;;
36931;SDS011;22847;42.654;23.370;2023-04-25T06:05:07;11.35;;;6.63;;
36931;SDS011;22847;42.654;23.370;2023-04-25T06:07:33;10.13;;;7.30;;
36931;SDS011;22847;42.654;23.370;2023-04-25T06:09:59;11.15;;;7.30;;
36931;SDS011;22847;42.654;23.370;2023-04-25T06:12:25;9.57;;;7.15;;
36931;SDS011;22847;42.654;23.370;2023-04-25T06:14:51;10.18;;;7.30;;
36931;SDS011;22847;42.654;23.370;2023-04-25T06:17:17;11.70;;;7.63;;
36931;SDS011;22847;42.654;23.370;2023-04-25T06:19:42;14.57;;;7.53;;
36931;SDS011;22847;42.654;23.370;2023-04-25T06:22:07;10.73;;;7.25;;
36931;SDS011;22847;42.654;23.370;2023-04-25T06:24:33;10.20;;;7.47;;
36931;SDS011;22847;42.654;23.370;2023-04-25T06:26:59;9.38;;;6.97;;
36931;SDS011;22847;42.654;23.370;2023-04-25T06:29:25;11.05;;;6.97;;
36931;SDS011;22847;42.654;23.370;2023-04-25T06:31:50;9.23;;;6.63;;
36931;SDS011;22847;42.654;23.370;2023-04-25T06:34:16;8.70;;;6.57;;
36931;SDS011;22847;42.654;23.370;2023-04-25T06:36:42;9.65;;;6.93;;
36931;SDS011;22847;42.654;23.370;2023-04-25T06:39:09;10.77;;;5.88;;
36931;SDS011;22847;42.654;23.370;2023-04-25T06:41:34;12.85;;;6.72;;
36931;SDS011;22847;42.654;23.370;2023-04-25T06:44:00;16.45;;;6.72;;
36931;SDS011;22847;42.654;23.370;2023-04-25T06:46:26;11.60;;;6.10;;
36931;SDS011;22847;42.654;23.370;2023-04-25T06:48:51;9.40;;;5.72;;
36931;SDS011;22847;42.654;23.370;2023-04-25T06:51:17;7.28;;;6.20;;
36931;SDS011;22847;42.654;23.370;2023-04-25T06:53:42;9.73;;;5.50;;
36931;SDS011;22847;42.654;23.370;2023-04-25T06:56:08;7.57;;;4.30;;
36931;SDS011;22847;42.654;23.370;2023-04-25T06:58:33;8.10;;;4.82;;
36931;SDS011;22847;42.654;23.370;2023-04-25T07:00:58;15.98;;;5.22;;
36931;SDS011;22847;42.654;23.370;2023-04-25T07:03:24;8.98;;;4.75;;
36931;SDS011;22847;42.654;23.370;2023-04-25T07:05:50;17.30;;;5.10;;
36931;SDS011;22847;42.654;23.370;2023-04-25T07:08:15;11.60;;;4.22;;
36931;SDS011;22847;42.654;23.370;2023-04-25T07:10:41;8.55;;;4.72;;
36931;SDS011;22847;42.654;23.370;2023-04-25T07:13:07;5.25;;;3.80;;
36931;SDS011;22847;42.654;23.370;2023-04-25T07:15:32;9.85;;;5.10;;
36931;SDS011;22847;42.654;23.370;2023-04-25T07:17:58;9.05;;;5.57;;
36931;SDS011;22847;42.654;23.370;2023-04-25T07:20:24;15.63;;;8.95;;
36931;SDS011;22847;42.654;23.370;2023-04-25T07:22:50;14.60;;;7.28;;
36931;SDS011;22847;42.654;23.370;2023-04-25T07:25:15;8.45;;;5.63;;
36931;SDS011;22847;42.654;23.370;2023-04-25T07:27:41;10.23;;;5.10;;
36931;SDS011;22847;42.654;23.370;2023-04-25T07:30:07;8.15;;;5.35;;
36931;SDS011;22847;42.654;23.370;2023-04-25T07:32:33;6.30;;;4.80;;
36931;SDS011;22847;42.654;23.370;2023-04-25T07:34:58;7.95;;;5.35;;
36931;SDS011;22847;42.654;23.370;2023-04-25T07:37:23;11.43;;;7.00;;
36931;SDS011;22847;42.654;23.370;2023-04-25T07:39:50;10.57;;;6.20;;
36931;SDS011;22847;42.654;23.370;2023-04-25T07:42:15;16.58;;;7.20;;
36931;SDS011;22847;42.654;23.370;2023-04-25T07:44:41;10.60;;;6.00;;
36931;SDS011;22847;42.654;23.370;2023-04-25T07:47:07;8.77;;;6.03;;
36931;SDS011;22847;42.654;23.370;2023-04-25T07:49:33;11.60;;;6.10;;
36931;SDS011;22847;42.654;23.370;2023-04-25T07:52:00;12.43;;;5.80;;
36931;SDS011;22847;42.654;23.370;2023-04-25T07:54:26;13.05;;;6.13;;
36931;SDS011;22847;42.654;23.370;2023-04-25T07:56:52;10.02;;;5.70;;
36931;SDS011;22847;42.654;23.370;2023-04-25T07:59:17;10.23;;;6.38;;
36931;SDS011;22847;42.654;23.370;2023-04-25T08:01:42;12.15;;;5.57;;
36931;SDS011;22847;42.654;23.370;2023-04-25T08:04:08;9.43;;;6.07;;
36931;SDS011;22847;42.654;23.370;2023-04-25T08:06:33;14.75;;;5.35;;
36931;SDS011;22847;42.654;23.370;2023-04-25T08:08:58;9.32;;;5.45;;
36931;SDS011;22847;42.654;23.370;2023-04-25T08:11:24;10.18;;;5.72;;
36931;SDS011;22847;42.654;23.370;2023-04-25T08:13:50;11.35;;;5.88;;
36931;SDS011;22847;42.654;23.370;2023-04-25T08:16:15;10.43;;;4.35;;
36931;SDS011;22847;42.654;23.370;2023-04-25T08:18:40;8.80;;;4.43;;
36931;SDS011;22847;42.654;23.370;2023-04-25T08:21:06;8.65;;;4.45;;
36931;SDS011;22847;42.654;23.370;2023-04-25T08:23:33;10.23;;;4.95;;
36931;SDS011;22847;42.654;23.370;2023-04-25T08:25:59;8.43;;;4.68;;
36931;SDS011;22847;42.654;23.370;2023-04-25T08:28:24;9.75;;;4.72;;
36931;SDS011;22847;42.654;23.370;2023-04-25T08:30:50;12.65;;;5.43;;
36931;SDS011;22847;42.654;23.370;2023-04-25T08:33:16;5.50;;;4.32;;
36931;SDS011;22847;42.654;23.370;2023-04-25T08:35:41;11.23;;;5.18;;
36931;SDS011;22847;42.654;23.370;2023-04-25T08:38:06;9.48;;;5.20;;
36931;SDS011;22847;42.654;23.370;2023-04-25T08:40:32;14.85;;;4.88;;
36931;SDS011;22847;42.654;23.370;2023-04-25T08:43:02;8.32;;;5.30;;
36931;SDS011;22847;42.654;23.370;2023-04-25T08:45:30;6.70;;;4.95;;
36931;SDS011;22847;42.654;23.370;2023-04-25T08:47:57;5.05;;;3.70;;
36931;SDS011;22847;42.654;23.370;2023-04-25T08:50:23;7.22;;;3.92;;
36931;SDS011;22847;42.654;23.370;2023-04-25T08:52:51;11.88;;;5.05;;
36931;SDS011;22847;42.654;23.370;2023-04-25T08:55:18;3.85;;;2.80;;
36931;SDS011;22847;42.654;23.370;2023-04-25T08:57:45;6.68;;;2.72;;
36931;SDS011;22847;42.654;23.370;2023-04-25T09:00:12;4.20;;;2.70;;
36931;SDS011;22847;42.654;23.370;2023-04-25T09:02:39;7.78;;;3.85;;
36931;SDS011;22847;42.654;23.370;2023-04-25T09:05:05;11.23;;;6.50;;
36931;SDS011;22847;42.654;23.370;2023-04-25T09:07:32;11.38;;;7.25;;
36931;SDS011;22847;42.654;23.370;2023-04-25T09:09:58;13.75;;;6.43;;
36931;SDS011;22847;42.654;23.370;2023-04-25T09:12:26;11.10;;;5.93;;
36931;SDS011;22847;42.654;23.370;2023-04-25T09:15:06;11.95;;;6.78;;
36931;SDS011;22847;42.654;23.370;2023-04-25T09:17:34;11.40;;;7.53;;
36931;SDS011;22847;42.654;23.370;2023-04-25T09:20:09;11.43;;;6.75;;
36931;SDS011;22847;42.654;23.370;2023-04-25T09:22:37;11.77;;;7.13;;
36931;SDS011;22847;42.654;23.370;2023-04-25T09:25:07;11.38;;;7.55;;
36931;SDS011;22847;42.654;23.370;2023-04-25T09:27:34;14.60;;;8.75;;
36931;SDS011;22847;42.654;23.370;2023-04-25T09:30:00;17.90;;;7.57;;
36931;SDS011;22847;42.654;23.370;2023-04-25T09:32:27;8.85;;;5.63;;
36931;SDS011;22847;42.654;23.370;2023-04-25T09:34:53;11.88;;;6.22;;
36931;SDS011;22847;42.654;23.370;2023-04-25T09:37:20;10.27;;;6.75;;
36931;SDS011;22847;42.654;23.370;2023-04-25T09:39:48;9.65;;;5.90;;
36931;SDS011;22847;42.654;23.370;2023-04-25T09:42:15;11.82;;;6.47;;
36931;SDS011;22847;42.654;23.370;2023-04-25T09:44:44;12.38;;;5.85;;
36931;SDS011;22847;42.654;23.370;2023-04-25T09:47:11;9.52;;;6.18;;
36931;SDS011;22847;42.654;23.370;2023-04-25T09:49:41;16.60;;;5.97;;
36931;SDS011;22847;42.654;23.370;2023-04-25T09:52:08;9.75;;;5.68;;
36931;SDS011;22847;42.654;23.370;2023-04-25T09:54:34;18.13;;;6.07;;
36931;SDS011;22847;42.654;23.370;2023-04-25T09:59:35;11.65;;;5.50;;
36931;SDS011;22847;42.654;23.370;2023-04-25T10:02:05;13.50;;;6.28;;
36931;SDS011;22847;42.654;23.370;2023-04-25T10:04:33;9.70;;;5.80;;
36931;SDS011;22847;42.654;23.370;2023-04-25T10:07:01;7.93;;;5.22;;
36931;SDS011;22847;42.654;23.370;2023-04-25T10:09:30;12.18;;;5.57;;
36931;SDS011;22847;42.654;23.370;2023-04-25T10:11:59;9.70;;;5.28;;
36931;SDS011;22847;42.654;23.370;2023-04-25T10:14:25;8.07;;;5.20;;
36931;SDS011;22847;42.654;23.370;2023-04-25T10:16:51;14.98;;;5.05;;
36931;SDS011;22847;42.654;23.370;2023-04-25T10:19:20;19.85;;;6.72;;
36931;SDS011;22847;42.654;23.370;2023-04-25T10:21:52;7.18;;;4.38;;
36931;SDS011;22847;42.654;23.370;2023-04-25T10:24:20;14.68;;;5.40;;
36931;SDS011;22847;42.654;23.370;2023-04-25T10:26:46;11.65;;;4.97;;
36931;SDS011;22847;42.654;23.370;2023-04-25T10:29:15;10.65;;;3.95;;
36931;SDS011;22847;42.654;23.370;2023-04-25T10:31:47;5.13;;;3.13;;
36931;SDS011;22847;42.654;23.370;2023-04-25T10:34:12;2.42;;;1.75;;
36931;SDS011;22847;42.654;23.370;2023-04-25T10:36:38;2.95;;;2.38;;
36931;SDS011;22847;42.654;23.370;2023-04-25T10:39:05;5.10;;;2.90;;
36931;SDS011;22847;42.654;23.370;2023-04-25T10:44:32;9.27;;;3.45;;
36931;SDS011;22847;42.654;23.370;2023-04-25T10:46:59;8.15;;;3.15;;
36931;SDS011;22847;42.654;23.370;2023-04-25T10:55:02;13.82;;;4.70;;
36931;SDS011;22847;42.654;23.370;2023-04-25T10:57:41;5.35;;;3.63;;
36931;SDS011;22847;42.654;23.370;2023-04-25T11:00:19;9.23;;;3.35;;
36931;SDS011;22847;42.654;23.370;2023-04-25T11:02:49;5.45;;;2.38;;
36931;SDS011;22847;42.654;23.370;2023-04-25T11:05:20;5.00;;;2.30;;
36931;SDS011;22847;42.654;23.370;2023-04-25T11:07:56;3.03;;;2.10;;
36931;SDS011;22847;42.654;23.370;2023-04-25T11:10:26;6.88;;;2.20;;
36931;SDS011;22847;42.654;23.370;2023-04-25T11:12:52;4.38;;;1.88;;
36931;SDS011;22847;42.654;23.370;2023-04-25T11:15:18;5.53;;;2.10;;
36931;SDS011;22847;42.654;23.370;2023-04-25T11:17:43;4.80;;;2.25;;
36931;SDS011;22847;42.654;23.370;2023-04-25T11:20:11;5.05;;;2.10;;
36931;SDS011;22847;42.654;23.370;2023-04-25T11:22:39;4.50;;;1.70;;
36931;SDS011;22847;42.654;23.370;2023-04-25T11:25:09;4.57;;;1.90;;
36931;SDS011;22847;42.654;23.370;2023-04-25T11:27:49;5.13;;;2.03;;
36931;SDS011;22847;42.654;23.370;2023-04-25T11:30:19;6.20;;;2.33;;
36931;SDS011;22847;42.654;23.370;2023-04-25T11:32:46;4.57;;;2.47;;
36931;SDS011;22847;42.654;23.370;2023-04-25T11:35:12;4.68;;;2.22;;
36931;SDS011;22847;42.654;23.370;2023-04-25T11:37:41;5.88;;;2.63;;
36931;SDS011;22847;42.654;23.370;2023-04-25T11:40:08;8.65;;;2.90;;
36931;SDS011;22847;42.654;23.370;2023-04-25T11:42:38;6.43;;;2.75;;
36931;SDS011;22847;42.654;23.370;2023-04-25T11:45:05;7.75;;;2.55;;
36931;SDS011;22847;42.654;23.370;2023-04-25T11:47:31;6.88;;;2.75;;
36931;SDS011;22847;42.654;23.370;2023-04-25T11:49:58;3.88;;;2.45;;
36931;SDS011;22847;42.654;23.370;2023-04-25T11:52:25;9.48;;;3.25;;
36931;SDS011;22847;42.654;23.370;2023-04-25T11:55:00;8.82;;;3.22;;
36931;SDS011;22847;42.654;23.370;2023-04-25T11:57:25;4.68;;;2.13;;
36931;SDS011;22847;42.654;23.370;2023-04-25T11:59:51;1.55;;;1.05;;
36931;SDS011;22847;42.654;23.370;2023-04-25T12:02:25;3.10;;;1.15;;
36931;SDS011;22847;42.654;23.370;2023-04-25T12:04:51;5.45;;;1.35;;
36931;SDS011;22847;42.654;23.370;2023-04-25T12:07:17;4.43;;;1.50;;
36931;SDS011;22847;42.654;23.370;2023-04-25T12:09:50;2.05;;;0.90;;
36931;SDS011;22847;42.654;23.370;2023-04-25T12:12:17;2.05;;;0.80;;
36931;SDS011;22847;42.654;23.370;2023-04-25T12:18:02;1.40;;;0.90;;
36931;SDS011;22847;42.654;23.370;2023-04-25T12:20:28;0.85;;;0.85;;
36931;SDS011;22847;42.654;23.370;2023-04-25T12:22:53;3.40;;;0.93;;
36931;SDS011;22847;42.654;23.370;2023-04-25T12:33:28;1.45;;;1.05;;
36931;SDS011;22847;42.654;23.370;2023-04-25T12:35:54;3.13;;;1.67;;
36931;SDS011;22847;42.654;23.370;2023-04-25T12:38:27;1.23;;;1.13;;
36931;SDS011;22847;42.654;23.370;2023-04-25T12:40:59;2.38;;;1.08;;
36931;SDS011;22847;42.654;23.370;2023-04-25T12:43:25;4.80;;;1.05;;
36931;SDS011;22847;42.654;23.370;2023-04-25T12:45:51;2.33;;;1.50;;
36931;SDS011;22847;42.654;23.370;2023-04-25T12:48:18;2.47;;;1.38;;
36931;SDS011;22847;42.654;23.370;2023-04-25T12:50:44;7.43;;;1.42;;
36931;SDS011;22847;42.654;23.370;2023-04-25T12:53:12;3.97;;;1.23;;
36931;SDS011;22847;42.654;23.370;2023-04-25T12:55:38;1.10;;;1.00;;
36931;SDS011;22847;42.654;23.370;2023-04-25T12:58:03;4.13;;;1.55;;
36931;SDS011;22847;42.654;23.370;2023-04-25T13:00:29;2.40;;;1.40;;
36931;SDS011;22847;42.654;23.370;2023-04-25T13:02:55;3.45;;;1.40;;
36931;SDS011;22847;42.654;23.370;2023-04-25T13:05:21;5.55;;;1.50;;
36931;SDS011;22847;42.654;23.370;2023-04-25T13:07:46;2.05;;;1.00;;
36931;SDS011;22847;42.654;23.370;2023-04-25T13:10:12;2.97;;;1.30;;
36931;SDS011;22847;42.654;23.370;2023-04-25T13:12:38;6.32;;;1.30;;
36931;SDS011;22847;42.654;23.370;2023-04-25T13:15:03;3.30;;;1.17;;
36931;SDS011;22847;42.654;23.370;2023-04-25T13:17:29;1.80;;;1.20;;
36931;SDS011;22847;42.654;23.370;2023-04-25T13:19:55;4.53;;;1.52;;
36931;SDS011;22847;42.654;23.370;2023-04-25T13:22:20;2.28;;;1.63;;
36931;SDS011;22847;42.654;23.370;2023-04-25T13:24:46;3.67;;;1.45;;
36931;SDS011;22847;42.654;23.370;2023-04-25T13:27:12;1.88;;;1.27;;
36931;SDS011;22847;42.654;23.370;2023-04-25T13:29:38;5.22;;;1.70;;
36931;SDS011;22847;42.654;23.370;2023-04-25T13:32:05;3.08;;;1.40;;
36931;SDS011;22847;42.654;23.370;2023-04-25T13:34:31;4.18;;;1.75;;
36931;SDS011;22847;42.654;23.370;2023-04-25T13:36:57;2.53;;;1.48;;
36931;SDS011;22847;42.654;23.370;2023-04-25T13:39:22;3.35;;;1.80;;
36931;SDS011;22847;42.654;23.370;2023-04-25T13:41:49;3.33;;;1.65;;
36931;SDS011;22847;42.654;23.370;2023-04-25T13:44:14;7.22;;;1.88;;
36931;SDS011;22847;42.654;23.370;2023-04-25T13:46:40;2.90;;;1.73;;
36931;SDS011;22847;42.654;23.370;2023-04-25T13:49:05;3.08;;;1.60;;
36931;SDS011;22847;42.654;23.370;2023-04-25T13:51:31;4.32;;;1.95;;
36931;SDS011;22847;42.654;23.370;2023-04-25T13:53:57;2.83;;;1.67;;
36931;SDS011;22847;42.654;23.370;2023-04-25T13:56:22;2.53;;;1.83;;
36931;SDS011;22847;42.654;23.370;2023-04-25T13:58:49;1.77;;;1.45;;
36931;SDS011;22847;42.654;23.370;2023-04-25T14:01:16;2.88;;;1.35;;
36931;SDS011;22847;42.654;23.370;2023-04-25T14:03:42;1.95;;;1.25;;
36931;SDS011;22847;42.654;23.370;2023-04-25T14:06:07;4.68;;;1.45;;
36931;SDS011;22847;42.654;23.370;2023-04-25T14:08:33;2.97;;;1.58;;
36931;SDS011;22847;42.654;23.370;2023-04-25T14:10:59;3.47;;;2.22;;
36931;SDS011;22847;42.654;23.370;2023-04-25T14:13:24;3.08;;;1.70;;
36931;SDS011;22847;42.654;23.370;2023-04-25T14:15:50;3.72;;;1.70;;
36931;SDS011;22847;42.654;23.370;2023-04-25T14:18:15;2.95;;;1.67;;
36931;SDS011;22847;42.654;23.370;2023-04-25T14:20:41;4.53;;;1.52;;
36931;SDS011;22847;42.654;23.370;2023-04-25T14:23:06;2.80;;;1.50;;
36931;SDS011;22847;42.654;23.370;2023-04-25T14:25:31;2.33;;;1.33;;
36931;SDS011;22847;42.654;23.370;2023-04-25T14:27:57;1.50;;;1.10;;
36931;SDS011;22847;42.654;23.370;2023-04-25T14:30:22;2.03;;;1.20;;
36931;SDS011;22847;42.654;23.370;2023-04-25T14:32:48;2.10;;;1.30;;
36931;SDS011;22847;42.654;23.370;2023-04-25T14:35:15;2.30;;;1.40;;
36931;SDS011;22847;42.654;23.370;2023-04-25T14:37:40;1.77;;;1.08;;
36931;SDS011;22847;42.654;23.370;2023-04-25T14:40:06;4.25;;;1.20;;
36931;SDS011;22847;42.654;23.370;2023-04-25T14:42:37;2.45;;;1.60;;
36931;SDS011;22847;42.654;23.370;2023-04-25T14:45:03;2.65;;;1.27;;
36931;SDS011;22847;42.654;23.370;2023-04-25T14:47:31;3.10;;;1.27;;